Time;durP1;ratioP1;P1;durP2;ratioP2;P2;SDS_P1;SDS_P2;PMS_P1;PMS_P2;Temp;Humidity;BMP_temperature;BMP_pressure;BME280_temperature;BME280_humidity;BME280_pressure;Samples;Min_cycle;Max_cycle;Signal;HPM_P1;HPM_P2
2023/03/10 06:09:42;;;;;;;18.63;10.13;;;1.90;1.00;;;;;;6333173;22;20206;-87
2023/03/10 06:12:09;;;;;;;19.70;10.30;;;1.90;1.00;;;;;;6338971;22;20178;-88
2023/03/10 06:14:37;;;;;;;15.93;8.90;;;1.90;1.00;;;;;;6339439;22;20171;-88
2023/03/10 06:17:04;;;;;;;17.70;10.10;;;2.00;1.00;;;;;;6339920;22;20171;-88
2023/03/10 06:19:31;;;;;;;14.43;8.07;;;2.00;1.00;;;;;;6340150;22;20160;-89
2023/03/10 06:21:58;;;;;;;16.10;9.17;;;2.00;1.00;;;;;;6339238;22;20164;-89
2023/03/10 06:24:25;;;;;;;15.87;8.37;;;2.00;1.00;;;;;;6339343;22;20172;-89
2023/03/10 06:26:53;;;;;;;15.23;8.80;;;2.00;1.00;;;;;;6339853;22;20195;-89
2023/03/10 06:29:20;;;;;;;12.43;6.33;;;2.10;1.00;;;;;;6339933;22;20175;-89
2023/03/10 06:31:47;;;;;;;16.33;9.20;;;2.10;1.00;;;;;;6339533;22;20269;-89
2023/03/10 06:34:14;;;;;;;12.80;6.93;;;2.10;1.00;;;;;;6339552;22;20628;-89
2023/03/10 06:36:40;;;;;;;14.00;8.17;;;2.10;1.00;;;;;;6339687;22;20175;-90
2023/03/10 06:39:07;;;;;;;14.80;7.77;;;2.10;1.00;;;;;;6339999;22;20175;-90
2023/03/10 06:41:35;;;;;;;13.70;8.17;;;2.20;1.00;;;;;;6339843;22;20168;-90
2023/03/10 06:44:04;;;;;;;14.07;7.97;;;2.20;1.00;;;;;;6339875;22;20172;-90
2023/03/10 06:46:30;;;;;;;12.30;7.07;;;2.20;1.00;;;;;;6339624;22;20179;-89
2023/03/10 06:48:57;;;;;;;14.07;7.20;;;2.20;1.00;;;;;;6339935;22;20171;-89
2023/03/10 06:51:24;;;;;;;12.07;7.10;;;2.30;1.00;;;;;;6339530;22;20175;-89
2023/03/10 06:53:51;;;;;;;12.47;7.10;;;2.30;1.00;;;;;;6339635;22;20168;-89
2023/03/10 06:56:20;;;;;;;12.27;7.60;;;2.40;1.00;;;;;;6339928;22;20173;-90
2023/03/10 06:58:48;;;;;;;10.43;5.87;;;2.40;1.00;;;;;;6339730;22;20179;-89
2023/03/10 07:01:24;;;;;;;11.50;7.03;;;2.50;99.90;;;;;;6339681;22;20190;-89
2023/03/10 07:03:51;;;;;;;9.87;5.33;;;2.40;99.90;;;;;;6339600;22;20151;-90
2023/03/10 07:06:18;;;;;;;12.23;7.07;;;2.40;99.90;;;;;;6339130;22;20168;-89
2023/03/10 07:08:45;;;;;;;10.53;6.23;;;2.50;99.90;;;;;;6339655;22;20524;-89
2023/03/10 07:11:12;;;;;;;9.20;5.83;;;2.50;99.90;;;;;;6339638;22;20172;-88
2023/03/10 07:13:39;;;;;;;11.47;6.63;;;2.50;99.90;;;;;;6339341;22;20187;-90
2023/03/10 07:16:07;;;;;;;12.00;6.20;;;2.50;99.90;;;;;;6340049;22;20168;-89
2023/03/10 07:18:35;;;;;;;12.40;6.10;;;2.60;99.90;;;;;;6339530;22;20168;-90
2023/03/10 07:21:02;;;;;;;12.97;6.77;;;2.60;99.90;;;;;;6340110;22;20167;-91
2023/03/10 07:23:28;;;;;;;12.03;6.47;;;2.60;99.90;;;;;;6339918;22;20250;-89
2023/03/10 07:25:57;;;;;;;11.00;6.50;;;2.70;99.90;;;;;;6339900;22;20172;-90
2023/03/10 07:28:24;;;;;;;9.07;5.23;;;2.70;24.20;;;;;;6339440;22;20176;-91
2023/03/10 07:30:51;;;;;;;11.57;5.97;;;2.70;71.70;;;;;;6339379;22;20168;-89
2023/03/10 07:33:18;;;;;;;9.67;6.10;;;2.80;1.00;;;;;;6339666;22;20188;-89
2023/03/10 07:35:46;;;;;;;12.17;5.83;;;2.80;1.00;;;;;;6339577;22;20191;-89
2023/03/10 07:38:13;;;;;;;10.27;6.10;;;2.80;1.00;;;;;;6341610;22;20215;-89
2023/03/10 07:40:40;;;;;;;9.87;6.20;;;2.80;1.00;;;;;;6341497;22;20161;-90
2023/03/10 07:43:07;;;;;;;10.23;5.87;;;2.70;1.00;;;;;;6341278;22;20195;-90
2023/03/10 07:45:34;;;;;;;11.13;6.33;;;2.70;1.00;;;;;;6341262;22;20633;-89
2023/03/10 07:48:01;;;;;;;8.63;5.80;;;2.70;6.30;;;;;;6341192;22;20174;-89
2023/03/10 07:50:28;;;;;;;9.93;5.90;;;2.70;78.40;;;;;;6341390;22;20168;-90
2023/03/10 07:52:56;;;;;;;10.23;6.57;;;2.70;20.20;;;;;;6341390;22;20188;-90
2023/03/10 07:55:24;;;;;;;12.87;7.23;;;2.70;12.90;;;;;;6341657;22;20176;-89
2023/03/10 07:57:51;;;;;;;14.20;7.50;;;2.80;29.00;;;;;;6341408;22;20163;-90
2023/03/10 08:00:18;;;;;;;11.40;6.97;;;2.80;57.20;;;;;;6341058;22;20626;-90
2023/03/10 08:02:45;;;;;;;9.90;5.83;;;2.80;1.00;;;;;;6341193;22;20164;-90
2023/03/10 08:05:13;;;;;;;11.50;7.00;;;2.80;1.00;;;;;;6341367;22;20165;-90
2023/03/10 08:07:40;;;;;;;11.70;7.13;;;2.80;1.00;;;;;;6341446;22;20168;-90
2023/03/10 08:10:10;;;;;;;11.60;6.93;;;2.90;72.30;;;;;;6341239;22;20173;-90
2023/03/10 08:12:37;;;;;;;15.10;6.73;;;2.90;1.00;;;;;;6341636;22;20192;-91
2023/03/10 08:15:05;;;;;;;11.73;6.77;;;3.00;1.00;;;;;;6341613;22;20519;-91
2023/03/10 08:17:32;;;;;;;13.20;7.77;;;2.90;1.00;;;;;;6341457;22;20614;-90
2023/03/10 08:19:59;;;;;;;11.37;6.37;;;2.90;1.00;;;;;;6341246;22;20239;-90
2023/03/10 08:22:26;;;;;;;12.50;6.83;;;2.90;1.00;;;;;;6341380;22;20168;-90
2023/03/10 08:24:54;;;;;;;10.17;6.70;;;2.90;1.00;;;;;;6341444;22;20169;-90
2023/03/10 08:27:23;;;;;;;11.63;6.93;;;3.00;1.00;;;;;;6341269;22;20483;-90
2023/03/10 08:29:50;;;;;;;14.13;6.83;;;3.00;1.00;;;;;;6341580;22;20166;-90
2023/03/10 08:32:17;;;;;;;11.60;6.83;;;3.00;1.00;;;;;;6341079;22;20186;-91
2023/03/10 08:34:44;;;;;;;9.20;5.83;;;3.10;1.00;;;;;;6341396;22;20172;-90
2023/03/10 08:37:12;;;;;;;10.67;6.23;;;3.10;1.00;;;;;;6341086;22;20158;-90
2023/03/10 08:39:39;;;;;;;11.87;6.80;;;3.10;1.00;;;;;;6340884;22;20204;-90
2023/03/10 08:42:05;;;;;;;12.03;6.43;;;3.10;1.00;;;;;;6341264;22;20165;-90
2023/03/10 08:44:34;;;;;;;11.70;6.63;;;3.20;1.00;;;;;;6341191;22;20166;-90
2023/03/10 08:47:00;;;;;;;11.63;6.83;;;3.20;1.00;;;;;;6340456;22;20721;-90
2023/03/10 08:49:27;;;;;;;10.83;5.87;;;3.10;1.00;;;;;;6340901;22;20171;-90
2023/03/10 08:51:54;;;;;;;13.50;6.63;;;3.10;1.00;;;;;;6341178;22;20168;-90
2023/03/10 08:54:22;;;;;;;9.57;6.10;;;3.10;1.00;;;;;;6340747;22;20188;-91
2023/03/10 08:56:50;;;;;;;11.17;6.37;;;3.10;1.00;;;;;;6341133;22;20493;-91
2023/03/10 08:59:18;;;;;;;11.37;7.23;;;3.10;1.00;;;;;;6341163;22;20165;-91
2023/03/10 09:01:46;;;;;;;13.07;7.10;;;3.20;1.00;;;;;;6340734;22;20223;-90
2023/03/10 09:04:13;;;;;;;10.67;6.47;;;3.20;1.00;;;;;;6341282;22;20186;-91
2023/03/10 09:06:40;;;;;;;9.57;5.63;;;3.30;1.00;;;;;;6340880;22;20644;-91
2023/03/10 09:09:08;;;;;;;10.70;6.30;;;3.30;1.00;;;;;;6340882;22;20190;-90
2023/03/10 09:11:37;;;;;;;12.83;6.87;;;3.40;1.00;;;;;;6340679;22;20170;-90
2023/03/10 09:14:04;;;;;;;11.20;6.30;;;3.50;99.90;;;;;;6340856;22;20214;-90
2023/03/10 09:16:32;;;;;;;10.63;6.33;;;3.50;99.90;;;;;;6340467;22;20170;-90
2023/03/10 09:19:01;;;;;;;11.87;6.90;;;3.40;99.90;;;;;;6341042;22;20170;-90
2023/03/10 09:21:29;;;;;;;10.47;6.53;;;3.40;1.00;;;;;;6340798;22;20158;-91
2023/03/10 09:23:56;;;;;;;10.33;6.47;;;3.60;1.00;;;;;;6340325;22;20220;-89
2023/03/10 09:26:23;;;;;;;11.03;6.47;;;3.70;99.90;;;;;;6340674;22;20172;-90
2023/03/10 09:28:51;;;;;;;11.27;6.87;;;3.70;99.90;;;;;;6340712;22;20172;-90
2023/03/10 09:31:20;;;;;;;9.57;5.63;;;3.70;99.90;;;;;;6340350;22;20174;-90
2023/03/10 09:33:47;;;;;;;11.90;6.40;;;3.70;99.90;;;;;;6340458;22;20186;-90
2023/03/10 09:36:15;;;;;;;10.20;6.53;;;3.70;99.90;;;;;;6340827;22;20165;-89
2023/03/10 09:38:42;;;;;;;10.37;6.33;;;3.70;99.90;;;;;;6340542;22;20177;-89
2023/03/10 09:41:22;;;;;;;9.40;6.23;;;3.80;99.90;;;;;;6340705;22;20172;-90
2023/03/10 09:43:55;;;;;;;9.53;6.17;;;3.80;99.90;;;;;;6340745;22;20157;-90
2023/03/10 09:46:26;;;;;;;10.70;6.43;;;3.80;99.90;;;;;;6340286;22;20153;-90
2023/03/10 09:49:01;;;;;;;11.83;6.30;;;3.80;99.90;;;;;;6340408;22;20618;-90
2023/03/10 09:51:29;;;;;;;9.93;6.13;;;3.80;99.90;;;;;;6340752;22;20156;-90
2023/03/10 09:54:06;;;;;;;10.57;6.03;;;3.70;99.90;;;;;;6340217;22;20264;-89
2023/03/10 09:56:35;;;;;;;9.93;6.30;;;3.70;99.90;;;;;;6340374;22;20154;-90
2023/03/10 09:59:09;;;;;;;10.53;6.37;;;3.60;1.00;;;;;;6339855;22;20637;-90
2023/03/10 10:01:37;;;;;;;11.07;7.10;;;3.70;1.00;;;;;;6340634;22;20203;-90
2023/03/10 10:04:09;;;;;;;8.23;5.50;;;3.80;1.00;;;;;;6341282;22;20488;-90
2023/03/10 10:06:41;;;;;;;11.80;7.00;;;3.80;1.00;;;;;;6340353;22;20150;-90
2023/03/10 10:09:17;;;;;;;11.40;6.83;;;3.80;1.00;;;;;;6340206;22;20259;-90
2023/03/10 10:11:44;;;;;;;13.57;6.67;;;3.90;1.00;;;;;;6340831;22;20237;-89
2023/03/10 10:14:15;;;;;;;10.47;6.43;;;4.00;1.00;;;;;;6340381;22;20195;-89
2023/03/10 10:16:51;;;;;;;11.50;7.47;;;4.00;1.00;;;;;;6340633;22;20150;-91
2023/03/10 10:19:21;;;;;;;10.47;6.50;;;4.00;1.00;;;;;;6340781;22;20150;-91
2023/03/10 10:21:56;;;;;;;9.37;6.40;;;4.00;99.90;;;;;;6340556;22;20150;-92
2023/03/10 10:24:23;;;;;;;11.83;6.67;;;3.90;99.90;;;;;;6340739;22;20233;-92
2023/03/10 10:26:50;;;;;;;10.77;6.57;;;3.90;1.00;;;;;;6340801;22;20201;-92
2023/03/10 10:29:22;;;;;;;10.53;6.93;;;3.90;1.00;;;;;;6340279;22;20166;-91
2023/03/10 10:32:09;;;;;;;11.20;6.83;;;3.90;1.00;;;;;;6340811;22;20154;-90
2023/03/10 10:34:37;;;;;;;8.63;5.90;;;4.00;1.00;;;;;;6340652;22;20174;-92
2023/03/10 10:37:23;;;;;;;9.60;5.97;;;4.10;1.00;;;;;;6340755;22;20193;-91
2023/03/10 10:39:51;;;;;;;10.37;5.87;;;4.10;1.00;;;;;;6340386;22;20607;-90
2023/03/10 10:42:23;;;;;;;11.10;5.77;;;4.20;1.00;;;;;;6340429;22;20173;-91
2023/03/10 10:44:53;;;;;;;8.10;5.53;;;4.10;1.00;;;;;;6340816;22;20173;-91
2023/03/10 10:47:30;;;;;;;9.27;5.77;;;4.10;1.00;;;;;;6340401;22;20147;-90
2023/03/10 10:50:16;;;;;;;10.23;6.27;;;4.20;1.00;;;;;;6340240;22;20169;-90
2023/03/10 10:52:47;;;;;;;10.37;5.77;;;4.30;1.00;;;;;;6339950;22;20154;-91
2023/03/10 10:55:26;;;;;;;8.10;5.47;;;4.40;1.00;;;;;;6340392;22;20472;-90
2023/03/10 10:57:56;;;;;;;8.27;5.57;;;4.40;1.00;;;;;;6340080;22;20154;-90
2023/03/10 11:00:26;;;;;;;8.67;5.67;;;4.40;1.00;;;;;;6340205;22;20223;-90
2023/03/10 11:02:53;;;;;;;8.27;5.80;;;4.50;1.00;;;;;;6340146;22;20603;-90
2023/03/10 11:05:23;;;;;;;8.57;5.53;;;4.50;1.00;;;;;;6339717;22;20245;-90
2023/03/10 11:07:51;;;;;;;10.27;5.73;;;4.50;1.00;;;;;;6339171;22;20173;-90
2023/03/10 11:10:20;;;;;;;8.40;5.80;;;4.40;1.00;;;;;;6339927;22;20143;-90
2023/03/10 11:13:03;;;;;;;9.47;6.07;;;4.30;1.00;;;;;;6339661;22;20175;-89
2023/03/10 11:15:32;;;;;;;8.93;5.80;;;4.20;99.90;;;;;;6339897;22;20165;-90
2023/03/10 11:18:04;;;;;;;10.50;5.90;;;4.20;99.90;;;;;;6339584;22;20169;-90
2023/03/10 11:20:38;;;;;;;9.77;5.93;;;4.30;99.90;;;;;;6339935;22;20160;-90
2023/03/10 11:23:18;;;;;;;10.07;6.20;;;4.20;99.90;;;;;;6339931;22;20152;-90
2023/03/10 11:25:50;;;;;;;10.73;6.50;;;4.20;99.90;;;;;;6339700;22;20161;-90
2023/03/10 11:28:36;;;;;;;8.87;5.73;;;4.20;99.90;;;;;;6339509;22;20600;-90
2023/03/10 11:31:13;;;;;;;9.23;5.80;;;4.20;1.00;;;;;;6339262;22;20157;-89
2023/03/10 11:33:48;;;;;;;8.67;5.90;;;4.30;1.00;;;;;;6339758;22;20177;-90
2023/03/10 11:36:24;;;;;;;11.47;6.17;;;4.30;1.00;;;;;;6339918;22;20150;-90
2023/03/10 11:39:04;;;;;;;10.13;6.43;;;4.30;1.00;;;;;;6339664;22;20156;-90
2023/03/10 11:41:37;;;;;;;10.63;6.33;;;4.40;1.00;;;;;;6339161;22;20596;-90
2023/03/10 11:44:13;;;;;;;10.70;6.10;;;4.60;1.00;;;;;;6339983;22;20146;-90
2023/03/10 11:46:55;;;;;;;8.40;5.73;;;4.70;1.00;;;;;;6339578;22;20163;-90
2023/03/10 11:49:26;;;;;;;10.73;6.50;;;4.70;1.00;;;;;;6339948;22;20157;-90
2023/03/10 11:51:56;;;;;;;10.43;6.67;;;4.90;1.00;;;;;;6339861;22;20155;-90
2023/03/10 11:54:28;;;;;;;11.23;6.50;;;5.00;99.90;;;;;;6339480;22;20170;-90
2023/03/10 11:56:57;;;;;;;12.27;7.37;;;5.10;1.00;;;;;;6339690;22;20161;-90
2023/03/10 11:59:27;;;;;;;11.03;7.33;;;5.40;1.00;;;;;;6339701;22;20173;-91
2023/03/10 12:01:57;;;;;;;10.47;6.93;;;5.60;1.00;;;;;;6339254;22;20612;-91
2023/03/10 12:04:30;;;;;;;11.53;7.40;;;5.70;99.90;;;;;;6339578;22;20548;-90
2023/03/10 12:07:03;;;;;;;10.77;7.30;;;5.80;1.00;;;;;;6340074;22;20150;-91
2023/03/10 12:09:41;;;;;;;12.10;7.47;;;5.80;1.00;;;;;;6339301;22;20214;-90
2023/03/10 12:12:14;;;;;;;11.40;7.80;;;5.90;1.00;;;;;;6339765;22;20150;-90
2023/03/10 12:14:42;;;;;;;12.77;7.60;;;6.00;1.00;;;;;;6339522;22;20186;-89
2023/03/10 12:17:12;;;;;;;12.30;7.73;;;5.90;1.00;;;;;;6339717;22;20499;-91
2023/03/10 12:20:21;;;;;;;13.17;7.90;;;5.90;1.00;;;;;;6339673;22;20191;-90
2023/03/10 12:22:49;;;;;;;13.57;7.87;;;5.80;1.00;;;;;;6244774;23;20176;-91
2023/03/10 12:25:46;;;;;;;12.77;7.37;;;5.90;1.00;;;;;;6245607;23;20618;-90
2023/03/10 12:28:21;;;;;;;14.10;7.83;;;6.00;1.00;;;;;;6245981;23;20170;-90
2023/03/10 12:30:50;;;;;;;12.77;7.70;;;6.10;1.00;;;;;;6246069;23;20153;-91
2023/03/10 12:33:42;;;;;;;12.03;7.53;;;6.20;1.00;;;;;;6245542;23;20540;-90
2023/03/10 12:36:13;;;;;;;14.30;7.37;;;6.20;1.00;;;;;;6245829;23;20175;-90
2023/03/10 12:38:44;;;;;;;14.83;8.27;;;6.40;1.00;;;;;;6245720;23;20175;-90
2023/03/10 12:41:14;;;;;;;13.70;8.30;;;6.40;1.00;;;;;;6245717;23;20163;-90
2023/03/10 12:44:01;;;;;;;13.13;7.90;;;6.40;99.90;;;;;;6245699;23;20541;-91
2023/03/10 12:46:41;;;;;;;14.40;7.87;;;6.30;1.00;;;;;;6245932;23;20178;-90
2023/03/10 12:49:18;;;;;;;13.43;8.53;;;6.40;1.00;;;;;;6245661;23;20640;-90
2023/03/10 12:51:52;;;;;;;14.53;8.53;;;6.60;24.80;;;;;;6246036;23;20170;-90
2023/03/10 12:54:46;;;;;;;11.70;8.03;;;6.90;1.00;;;;;;6245453;23;20179;-91
2023/03/10 12:57:19;;;;;;;11.57;7.53;;;7.10;99.90;;;;;;6221315;23;20171;-91
2023/03/10 12:59:52;;;;;;;14.37;8.37;;;7.10;99.90;;;;;;6339242;22;20166;-91
2023/03/10 13:02:28;;;;;;;12.07;7.57;;;7.10;99.90;;;;;;6341362;22;20483;-91
2023/03/10 13:05:00;;;;;;;12.40;7.83;;;7.20;99.90;;;;;;6341279;22;20588;-92
2023/03/10 13:07:29;;;;;;;12.90;7.27;;;7.40;99.90;;;;;;6342111;22;20151;-93
2023/03/10 13:09:57;;;;;;;12.33;7.07;;;7.50;99.90;;;;;;6342785;22;20249;-91
2023/03/10 13:12:29;;;;;;;15.03;7.73;;;7.60;99.90;;;;;;6343916;22;20180;-92
2023/03/10 13:14:58;;;;;;;12.13;8.10;;;7.70;99.90;;;;;;6343718;22;20253;-91
2023/03/10 13:17:27;;;;;;;10.70;7.00;;;7.70;99.90;;;;;;6343896;22;20170;-92
2023/03/10 13:20:00;;;;;;;11.47;7.90;;;7.80;99.90;;;;;;6343924;22;20502;-91
2023/03/10 13:22:28;;;;;;;11.30;6.90;;;7.90;44.40;;;;;;6343216;22;20233;-92
2023/03/10 13:25:00;;;;;;;11.03;7.47;;;8.00;99.90;;;;;;6343856;22;20713;-92
2023/03/10 13:27:33;;;;;;;12.33;8.17;;;8.20;99.90;;;;;;6343787;22;20166;-94
2023/03/10 13:30:03;;;;;;;11.57;7.67;;;8.40;99.90;;;;;;6344059;22;20151;-92
2023/03/10 13:32:31;;;;;;;11.30;7.97;;;8.60;1.00;;;;;;6344714;22;20249;-92
2023/03/10 13:34:58;;;;;;;15.37;10.03;;;8.60;1.00;;;;;;6342805;22;20192;-93
2023/03/10 13:37:25;;;;;;;22.50;15.20;;;8.80;1.00;;;;;;6343559;22;20620;-93
2023/03/10 13:40:06;;;;;;;42.73;24.93;;;9.00;1.00;;;;;;6344166;22;20172;-93
2023/03/10 13:42:34;;;;;;;46.57;29.77;;;9.10;1.00;;;;;;6344487;22;20609;-93
2023/03/10 13:45:21;;;;;;;46.60;30.53;;;9.30;1.00;;;;;;6343760;22;20162;-93
2023/03/10 13:47:48;;;;;;;40.83;24.43;;;9.40;1.00;;;;;;6344547;22;20172;-94
2023/03/10 13:50:16;;;;;;;37.70;22.97;;;9.60;1.00;;;;;;6341365;22;20163;-93
2023/03/10 13:52:55;;;;;;;29.10;18.10;;;9.80;99.90;;;;;;6340610;22;20161;-92
2023/03/10 13:55:23;;;;;;;24.53;16.70;;;10.00;99.90;;;;;;6341180;22;20171;-93
2023/03/10 13:57:52;;;;;;;21.90;15.67;;;10.10;99.90;;;;;;6343654;22;20252;-93
2023/03/10 14:00:21;;;;;;;12.50;8.87;;;10.20;1.00;;;;;;6342996;22;20166;-93
2023/03/10 14:02:50;;;;;;;17.90;10.30;;;10.20;1.00;;;;;;6342167;22;20161;-93
2023/03/10 14:05:39;;;;;;;16.00;10.67;;;10.10;1.00;;;;;;6344124;22;20200;-93
2023/03/10 14:08:06;;;;;;;15.57;11.80;;;10.00;99.90;;;;;;6341485;22;20195;-93
2023/03/10 14:10:33;;;;;;;15.13;9.97;;;10.00;5.90;;;;;;6341169;22;20150;-94
2023/03/10 14:13:01;;;;;;;25.43;21.17;;;10.00;99.90;;;;;;6340810;22;20244;-93
2023/03/10 14:15:35;;;;;;;13.70;10.10;;;10.10;1.00;;;;;;6340805;22;20184;-93
2023/03/10 14:18:19;;;;;;;18.57;11.30;;;10.00;1.00;;;;;;6341224;22;20167;-93
2023/03/10 14:20:46;;;;;;;15.57;10.33;;;9.90;99.90;;;;;;6341094;22;20216;-93
2023/03/10 14:23:36;;;;;;;20.30;13.17;;;10.00;99.90;;;;;;6341030;22;20170;-93
2023/03/10 14:26:10;;;;;;;18.87;12.20;;;10.00;99.90;;;;;;6341022;22;20184;-93
2023/03/10 14:28:40;;;;;;;15.67;11.17;;;9.80;1.00;;;;;;6340911;22;20153;-93
2023/03/10 14:31:19;;;;;;;16.83;11.70;;;9.60;26.80;;;;;;6341032;22;20507;-91
2023/03/10 14:33:46;;;;;;;18.03;12.07;;;9.40;1.00;;;;;;6340676;22;20615;-93
2023/03/10 14:36:13;;;;;;;20.00;14.70;;;9.20;99.90;;;;;;6340011;22;20170;-93
2023/03/10 14:38:40;;;;;;;26.47;14.57;;;9.20;99.90;;;;;;6342259;22;20631;-90
2023/03/10 14:41:07;;;;;;;28.93;15.30;;;9.10;1.00;;;;;;6340951;22;20174;-93
2023/03/10 14:43:34;;;;;;;29.03;15.10;;;9.10;1.00;;;;;;6340689;22;20169;-94
2023/03/10 14:46:04;;;;;;;31.00;14.83;;;9.00;99.90;;;;;;6340402;22;20169;-93
2023/03/10 14:48:35;;;;;;;32.47;16.43;;;8.80;99.90;;;;;;6340381;22;20222;-92
2023/03/10 14:51:02;;;;;;;19.17;11.30;;;8.70;1.00;;;;;;6340043;22;20173;-92
2023/03/10 14:53:30;;;;;;;15.93;10.53;;;8.60;1.00;;;;;;6340397;22;20164;-93
2023/03/10 14:56:00;;;;;;;19.37;13.60;;;8.60;1.00;;;;;;6339680;22;20191;-92
2023/03/10 14:58:29;;;;;;;29.53;18.07;;;8.50;1.00;;;;;;6339903;22;20651;-94
2023/03/10 15:00:56;;;;;;;24.00;14.93;;;8.40;1.00;;;;;;6340362;22;20167;-92
2023/03/10 15:03:25;;;;;;;22.73;14.83;;;8.40;1.00;;;;;;6339703;22;20171;-92
2023/03/10 15:05:51;;;;;;;18.40;11.50;;;8.40;1.00;;;;;;6340201;22;20168;-93
2023/03/10 15:08:18;;;;;;;19.93;13.00;;;8.40;1.00;;;;;;6340328;22;20191;-95
2023/03/10 15:10:47;;;;;;;41.07;26.63;;;8.40;1.00;;;;;;6340379;22;20250;-95
2023/03/10 15:13:14;;;;;;;19.27;11.80;;;8.30;1.00;;;;;;6341520;22;20226;-96
2023/03/10 15:15:42;;;;;;;36.57;24.33;;;8.20;1.00;;;;;;6340597;22;20191;-96
2023/03/10 15:18:11;;;;;;;18.80;11.80;;;8.10;1.00;;;;;;6344372;22;20613;-95
2023/03/10 15:20:40;;;;;;;24.40;14.20;;;8.20;99.90;;;;;;6343336;22;20162;-94
2023/03/10 15:23:07;;;;;;;17.67;11.67;;;8.30;99.90;;;;;;6347567;22;20174;-95
2023/03/10 15:25:34;;;;;;;23.80;16.50;;;8.40;1.00;;;;;;6344586;22;20461;-93
2023/03/10 15:28:01;;;;;;;17.37;13.00;;;8.50;1.00;;;;;;6340018;22;20207;-91
2023/03/10 15:30:30;;;;;;;19.80;12.90;;;8.50;1.00;;;;;;6340076;22;20504;-92
2023/03/10 15:32:57;;;;;;;16.40;11.50;;;8.40;1.00;;;;;;6339819;22;20219;-93
2023/03/10 15:35:24;;;;;;;20.27;15.67;;;8.40;1.00;;;;;;6339809;22;20262;-92
2023/03/10 15:37:52;;;;;;;17.87;11.43;;;8.50;1.00;;;;;;6339599;22;20238;-92
2023/03/10 15:40:21;;;;;;;15.93;11.37;;;8.40;1.00;;;;;;6339735;22;20194;-94
2023/03/10 15:42:48;;;;;;;18.17;11.70;;;8.10;99.90;;;;;;6339754;22;20163;-92
2023/03/10 15:45:17;;;;;;;23.33;15.90;;;7.80;1.00;;;;;;6339934;22;20170;-91
2023/03/10 15:47:43;;;;;;;27.23;18.30;;;7.60;1.00;;;;;;6340035;22;20262;-92
2023/03/10 15:50:12;;;;;;;31.07;20.97;;;7.40;1.00;;;;;;6340224;22;20170;-93
2023/03/10 15:52:38;;;;;;;22.60;15.30;;;7.20;99.90;;;;;;6339740;22;20694;-93
2023/03/10 15:55:07;;;;;;;24.80;16.70;;;7.10;99.90;;;;;;6339585;22;20683;-94
2023/03/10 15:57:34;;;;;;;26.70;19.47;;;7.00;99.90;;;;;;6340625;22;20501;-93
2023/03/10 16:00:01;;;;;;;27.40;17.90;;;7.10;1.00;;;;;;6342076;22;20638;-93
2023/03/10 16:02:28;;;;;;;25.67;17.17;;;7.00;99.90;;;;;;6341741;22;20170;-93
2023/03/10 16:04:54;;;;;;;23.93;14.07;;;7.00;99.90;;;;;;6341466;22;20162;-90
2023/03/10 16:07:21;;;;;;;24.03;15.20;;;6.90;1.00;;;;;;6342139;22;20177;-95
2023/03/10 16:09:48;;;;;;;21.50;13.30;;;6.90;1.00;;;;;;6342261;22;20199;-94
2023/03/10 16:12:16;;;;;;;24.37;16.63;;;6.90;1.00;;;;;;6342870;22;20166;-95
2023/03/10 16:14:43;;;;;;;26.17;17.40;;;6.80;1.00;;;;;;6341796;22;20180;-93
2023/03/10 16:17:11;;;;;;;22.87;14.03;;;6.70;99.90;;;;;;6342296;22;20166;-93
2023/03/10 16:19:38;;;;;;;24.00;14.43;;;6.50;1.00;;;;;;6343200;22;20247;-95
2023/03/10 16:22:04;;;;;;;20.27;12.90;;;6.40;1.00;;;;;;6341691;22;20630;-94
2023/03/10 16:24:31;;;;;;;22.07;14.67;;;6.20;1.00;;;;;;6341535;22;20165;-95
2023/03/10 16:26:58;;;;;;;23.80;14.73;;;6.10;99.90;;;;;;6341111;22;20166;-94
2023/03/10 16:29:26;;;;;;;27.23;15.13;;;6.20;99.90;;;;;;6341480;22;20651;-93
2023/03/10 16:31:53;;;;;;;27.23;16.23;;;6.10;99.90;;;;;;6341473;22;20169;-93
2023/03/10 16:34:20;;;;;;;27.77;15.67;;;6.10;99.90;;;;;;6342358;22;20177;-94
2023/03/10 16:36:49;;;;;;;26.00;14.97;;;6.10;99.90;;;;;;6349916;22;20272;-96
2023/03/10 16:39:16;;;;;;;29.43;21.93;;;6.00;99.90;;;;;;6355386;22;20158;-96
2023/03/10 16:46:55;;;;;;;24.57;12.03;;;5.90;99.90;;;;;;6337367;22;20195;-96
2023/03/10 16:49:22;;;;;;;20.20;11.77;;;5.80;99.90;;;;;;6356545;22;20169;-96
2023/03/10 16:51:49;;;;;;;24.67;11.50;;;5.80;99.90;;;;;;6326776;22;20195;-93
2023/03/10 16:54:17;;;;;;;20.30;12.00;;;5.70;1.00;;;;;;6353334;22;20204;-96
2023/03/10 16:56:46;;;;;;;21.67;12.60;;;5.60;1.00;;;;;;6345590;22;20216;-96
2023/03/10 16:59:14;;;;;;;25.30;16.07;;;5.60;1.00;;;;;;6344571;22;20188;-96
2023/03/10 17:01:43;;;;;;;25.17;15.53;;;5.60;1.00;;;;;;6343531;22;20203;-94
2023/03/10 17:04:11;;;;;;;37.70;18.00;;;5.60;1.00;;;;;;6341962;22;20169;-96
2023/03/10 17:06:39;;;;;;;43.13;16.77;;;5.60;1.00;;;;;;6342252;22;20246;-96
2023/03/10 17:09:08;;;;;;;40.80;16.30;;;5.50;99.90;;;;;;6342041;22;20878;-95
2023/03/10 17:11:37;;;;;;;54.20;17.07;;;5.40;99.90;;;;;;6342486;22;20168;-95
2023/03/10 17:14:07;;;;;;;58.63;14.43;;;5.30;1.00;;;;;;6341324;22;20176;-95
2023/03/10 17:16:35;;;;;;;53.30;15.23;;;5.20;1.00;;;;;;6344139;22;20261;-96
2023/03/10 17:19:04;;;;;;;37.83;14.83;;;5.10;1.00;;;;;;6341484;22;20170;-96
2023/03/10 17:21:37;;;;;;;35.50;16.30;;;5.10;1.00;;;;;;6348028;22;20220;-95
2023/03/10 17:40:03;;;;;;;42.90;14.10;;;5.00;99.90;;;;;;6335253;22;21007;-92
2023/03/10 17:42:31;;;;;;;32.20;15.97;;;5.00;99.90;;;;;;6327481;22;20146;-93
2023/03/10 17:44:58;;;;;;;35.37;14.40;;;5.00;99.90;;;;;;6357266;22;20292;-96
2023/03/10 17:49:58;;;;;;;49.67;14.63;;;5.00;99.90;;;;;;6331457;22;21077;-96
2023/03/10 17:52:25;;;;;;;58.50;18.33;;;5.10;99.90;;;;;;6321487;22;20164;-96
2023/03/10 17:54:52;;;;;;;73.17;22.70;;;5.10;99.90;;;;;;6323570;22;20216;-96
2023/03/10 17:57:20;;;;;;;65.80;15.53;;;5.00;99.90;;;;;;6321841;22;20179;-95
2023/03/10 17:59:49;;;;;;;62.63;13.93;;;5.00;99.90;;;;;;6324467;22;20163;-95
2023/03/10 18:02:16;;;;;;;51.03;13.27;;;5.00;61.50;;;;;;6324251;22;20169;-96
2023/03/10 18:04:45;;;;;;;72.63;13.63;;;4.90;99.90;;;;;;6316483;22;20989;-95
2023/03/10 18:07:12;;;;;;;57.17;11.83;;;4.90;99.90;;;;;;6350956;22;20163;-96
2023/03/10 18:09:39;;;;;;;73.93;13.37;;;4.90;99.90;;;;;;6350856;22;20213;-94
2023/03/10 18:14:43;;;;;;;101.67;14.07;;;4.90;99.90;;;;;;6349697;22;20185;-96
2023/03/10 18:17:09;;;;;;;80.57;13.63;;;4.80;99.90;;;;;;6346100;22;20593;-95
2023/03/10 18:19:37;;;;;;;76.93;14.13;;;4.80;99.90;;;;;;6347104;22;20201;-96
2023/03/10 18:22:05;;;;;;;95.90;16.23;;;4.80;1.00;;;;;;6346139;22;20177;-95
2023/03/10 18:24:33;;;;;;;104.97;17.20;;;4.80;1.00;;;;;;6350150;22;20194;-96
2023/03/10 18:27:00;;;;;;;110.83;15.50;;;4.80;1.00;;;;;;6357604;22;20166;-95
2023/03/10 18:29:27;;;;;;;125.67;17.20;;;4.70;1.00;;;;;;6357726;22;20264;-96
2023/03/10 18:31:55;;;;;;;112.90;15.00;;;4.70;1.00;;;;;;6365005;22;20163;-95
2023/03/10 18:36:57;;;;;;;116.80;14.00;;;4.60;1.00;;;;;;6324562;22;20186;-96
2023/03/10 18:41:59;;;;;;;109.07;12.17;;;4.50;1.00;;;;;;6349152;22;20514;-95
2023/03/10 18:44:26;;;;;;;103.90;13.47;;;4.40;1.00;;;;;;6344643;22;20265;-95
2023/03/10 18:49:22;;;;;;;129.90;18.60;;;4.30;99.90;;;;;;6317127;22;20534;-96
2023/03/10 18:51:49;;;;;;;156.20;17.43;;;4.30;99.90;;;;;;6342337;22;20254;-95
2023/03/10 18:59:27;;;;;;;99.77;14.27;;;4.20;99.90;;;;;;6337069;22;20197;-95
2023/03/10 19:01:54;;;;;;;85.13;14.10;;;4.10;99.90;;;;;;6341567;22;20177;-95
2023/03/10 19:04:22;;;;;;;80.80;12.30;;;4.10;1.00;;;;;;6344627;22;20170;-95
2023/03/10 19:06:49;;;;;;;90.27;13.00;;;4.00;1.00;;;;;;6346199;22;20176;-96
2023/03/10 19:09:18;;;;;;;114.03;14.53;;;4.00;1.00;;;;;;6351261;22;20181;-96
2023/03/10 19:11:45;;;;;;;67.07;12.70;;;3.90;1.00;;;;;;6342092;22;20170;-96
2023/03/10 19:14:12;;;;;;;119.40;14.90;;;3.90;1.00;;;;;;6340831;22;20189;-95
2023/03/10 19:16:39;;;;;;;78.73;12.73;;;3.80;93.80;;;;;;6341199;22;20187;-95
2023/03/10 19:19:06;;;;;;;62.83;11.50;;;3.90;99.90;;;;;;6341886;22;20170;-96
2023/03/10 19:21:36;;;;;;;96.03;15.40;;;3.80;99.90;;;;;;6343451;22;20256;-94
2023/03/10 19:26:38;;;;;;;154.73;17.93;;;3.70;99.90;;;;;;6346978;22;20242;-95
2023/03/10 19:29:05;;;;;;;110.27;14.63;;;3.70;1.00;;;;;;6352142;22;20226;-96
2023/03/10 19:31:32;;;;;;;131.87;17.53;;;3.70;1.00;;;;;;6352726;22;20208;-96
2023/03/10 19:33:59;;;;;;;166.23;21.13;;;3.60;1.00;;;;;;6360368;22;20176;-95
2023/03/10 19:36:28;;;;;;;161.57;18.77;;;3.60;1.00;;;;;;6361067;22;20174;-96
2023/03/10 19:38:56;;;;;;;142.47;19.43;;;3.70;1.00;;;;;;6362278;22;20160;-95
2023/03/10 19:41:23;;;;;;;147.30;18.43;;;3.60;1.00;;;;;;6356383;22;20162;-96
2023/03/10 19:43:50;;;;;;;106.03;15.23;;;3.60;1.00;;;;;;6353990;22;20170;-95
2023/03/10 19:48:53;;;;;;;172.73;20.23;;;3.60;1.00;;;;;;6357232;22;20225;-96
2023/03/10 19:51:21;;;;;;;185.00;21.70;;;3.60;1.00;;;;;;6353131;22;20604;-96
2023/03/10 19:53:49;;;;;;;161.20;21.37;;;3.50;1.00;;;;;;6349997;22;20161;-96